createdAt,value
2018-07-05T00:01:56.803Z,93.80
2018-07-05T00:04:36.400Z,93.90
2018-07-05T00:07:16.304Z,93.80
2018-07-05T00:09:57.113Z,93.80
2018-07-05T00:12:36.883Z,93.80
2018-07-05T00:15:16.723Z,93.90
2018-07-05T00:17:56.514Z,93.90
2018-07-05T00:20:38.633Z,93.90
2018-07-05T00:23:18.230Z,94.00
2018-07-05T00:25:58.007Z,94.00
2018-07-05T00:28:37.755Z,94.10
2018-07-05T00:31:17.482Z,94.00
2018-07-05T00:33:58.070Z,94.00
2018-07-05T00:36:37.843Z,93.90
2018-07-05T00:39:17.532Z,94.00
2018-07-05T00:41:57.320Z,94.10
2018-07-05T00:44:37.048Z,94.20
2018-07-05T00:47:17.370Z,94.20
2018-07-05T00:49:57.080Z,94.20
2018-07-05T00:52:39.196Z,94.10
2018-07-05T00:55:19.032Z,94.10
2018-07-05T00:57:58.752Z,94.10
2018-07-05T01:00:38.452Z,94.00
2018-07-05T01:03:18.153Z,94.00
2018-07-05T01:05:58.041Z,94.10
2018-07-05T01:08:37.785Z,94.10
2018-07-05T01:11:19.409Z,94.20
2018-07-05T01:13:59.342Z,94.40
2018-07-05T01:16:39.150Z,94.30
2018-07-05T01:19:19.052Z,94.30
2018-07-05T01:21:58.836Z,94.40
2018-07-05T01:24:38.728Z,94.30
2018-07-05T01:27:18.510Z,94.20
2018-07-05T01:29:58.304Z,94.10
2018-07-05T01:32:38.034Z,94.00
2018-07-05T01:35:17.893Z,94.10
2018-07-05T01:37:57.571Z,93.90
2018-07-05T01:40:37.342Z,93.90
2018-07-05T01:43:17.274Z,94.00
2018-07-05T01:45:56.963Z,94.20
2018-07-05T01:48:36.656Z,94.20
2018-07-05T01:51:16.480Z,94.30
2018-07-05T01:53:56.223Z,94.40
2018-07-05T01:56:35.972Z,94.30
2018-07-05T01:59:15.850Z,94.30
2018-07-05T02:01:55.545Z,94.30
2018-07-05T02:04:35.438Z,94.40
2018-07-05T02:07:15.115Z,94.30
2018-07-05T02:09:55.066Z,94.50
2018-07-05T02:12:34.972Z,94.50
2018-07-05T02:15:14.759Z,94.60
2018-07-05T02:17:54.473Z,94.70
2018-07-05T02:20:34.252Z,94.90
2018-07-05T02:23:14.078Z,94.90
2018-07-05T02:25:53.914Z,94.90
2018-07-05T02:28:33.574Z,94.90
2018-07-05T02:31:13.226Z,95.00
2018-07-05T02:33:52.943Z,95.00
2018-07-05T02:36:35.731Z,95.00
2018-07-05T02:46:15.551Z,95.10
2018-07-05T02:48:55.406Z,94.90
2018-07-05T02:51:35.000Z,94.90
2018-07-05T02:54:14.931Z,94.90
2018-07-05T02:56:54.825Z,95.10
2018-07-05T02:59:34.513Z,95.10
2018-07-05T03:02:14.693Z,95.20
2018-07-05T03:04:54.618Z,95.10
2018-07-05T03:07:34.503Z,95.10
2018-07-05T03:10:14.388Z,95.10
2018-07-05T03:12:54.143Z,95.00
2018-07-05T03:15:34.590Z,95.00
2018-07-05T03:18:14.274Z,95.40
2018-07-05T03:20:54.111Z,95.10
2018-07-05T03:23:33.914Z,95.30
2018-07-05T03:26:13.710Z,95.40
2018-07-05T03:28:53.991Z,95.50
2018-07-05T03:31:33.756Z,95.60
2018-07-05T03:34:13.570Z,95.60
2018-07-05T03:36:53.279Z,95.50
2018-07-05T03:39:33.041Z,95.50
2018-07-05T03:42:12.770Z,95.40
2018-07-05T03:44:52.456Z,95.20
2018-07-05T03:47:32.241Z,95.00
2018-07-05T03:50:12.076Z,94.90
2018-07-05T03:52:51.644Z,95.00
2018-07-05T03:55:31.435Z,95.10
2018-07-05T03:58:11.194Z,95.00
2018-07-05T04:00:51.068Z,94.80
2018-07-05T04:03:30.791Z,94.50
2018-07-05T04:06:10.503Z,94.30
2018-07-05T04:08:50.332Z,94.30
2018-07-05T04:11:30.795Z,94.10
2018-07-05T04:14:10.571Z,93.90
2018-07-05T04:16:50.371Z,93.80
2018-07-05T04:19:30.107Z,93.70
2018-07-05T04:22:14.189Z,93.60
2018-07-05T04:24:54.152Z,93.60
2018-07-05T04:27:34.100Z,93.60
2018-07-05T04:30:13.814Z,93.40
2018-07-05T04:32:57.975Z,93.30
2018-07-05T04:35:37.832Z,93.30
2018-07-05T04:38:17.601Z,93.30
2018-07-05T04:40:58.987Z,93.30
2018-07-05T04:43:38.924Z,93.20
2018-07-05T04:46:18.654Z,93.10
2018-07-05T04:49:01.556Z,93.10
2018-07-05T04:51:43.306Z,93.20
2018-07-05T04:54:22.973Z,93.10
2018-07-05T04:57:02.546Z,93.20
2018-07-05T04:59:43.187Z,93.10
2018-07-05T05:02:23.052Z,93.20
2018-07-05T05:05:02.693Z,93.30
2018-07-05T05:07:42.838Z,93.60
2018-07-05T05:10:23.397Z,93.60
2018-07-05T05:13:04.157Z,93.70
2018-07-05T05:15:44.168Z,93.80
2018-07-05T05:18:24.157Z,93.60
2018-07-05T05:21:04.013Z,93.70
2018-07-05T05:23:45.429Z,93.70
2018-07-05T05:26:26.733Z,93.50
2018-07-05T05:29:06.706Z,93.40
2018-07-05T05:31:46.957Z,93.30
2018-07-05T05:34:26.664Z,93.40
2018-07-05T05:37:06.622Z,93.20
2018-07-05T05:39:46.535Z,93.10
2018-07-05T05:42:26.379Z,92.90
2018-07-05T05:45:08.465Z,92.80
2018-07-05T05:47:48.403Z,92.80
2018-07-05T05:50:28.353Z,92.60
2018-07-05T05:53:08.233Z,92.60
2018-07-05T05:55:47.875Z,92.40
2018-07-05T05:58:27.867Z,92.10
2018-07-05T06:01:07.889Z,92.10
2018-07-05T06:03:47.999Z,91.80
2018-07-05T06:06:27.745Z,91.20
2018-07-05T06:09:07.525Z,91.00
2018-07-05T06:11:48.874Z,91.00
2018-07-05T06:14:28.762Z,91.00
2018-07-05T06:17:09.120Z,90.80
2018-07-05T06:19:48.941Z,90.40
2018-07-05T06:22:28.754Z,90.20
2018-07-05T06:25:08.566Z,90.30
2018-07-05T06:27:48.389Z,90.00
2018-07-05T06:30:28.243Z,90.00
2018-07-05T06:33:08.151Z,88.90
2018-07-05T06:35:48.223Z,88.20
2018-07-05T06:38:28.050Z,88.00
2018-07-05T06:41:07.822Z,87.40
2018-07-05T06:43:48.095Z,87.10
2018-07-05T06:46:27.919Z,86.80
2018-07-05T06:49:07.983Z,86.70
2018-07-05T06:51:48.054Z,86.50
2018-07-05T06:54:28.642Z,84.60
2018-07-05T06:57:08.601Z,84.00
2018-07-05T06:59:48.319Z,83.40
2018-07-05T07:02:28.199Z,83.10
2018-07-05T07:05:08.079Z,82.90
2018-07-05T07:07:48.286Z,83.60
2018-07-05T07:10:28.468Z,82.50
2018-07-05T07:13:08.579Z,81.70
2018-07-05T07:15:48.282Z,81.30
2018-07-05T07:18:28.045Z,81.30
2018-07-05T07:21:08.201Z,80.60
2018-07-05T07:23:48.044Z,80.10
2018-07-05T07:26:28.043Z,80.00
2018-07-05T07:29:08.168Z,79.90
2018-07-05T07:31:48.010Z,78.80
2018-07-05T07:34:27.944Z,77.80
2018-07-05T07:37:07.714Z,78.00
2018-07-05T07:39:47.769Z,77.90
2018-07-05T07:42:15.439Z,76.90
2018-07-05T07:44:42.997Z,76.80
2018-07-05T07:47:10.708Z,76.50
2018-07-05T07:49:38.258Z,75.20
2018-07-05T07:52:05.897Z,75.00
2018-07-05T07:54:33.638Z,74.80
2018-07-05T07:57:01.224Z,75.00
2018-07-05T07:59:28.867Z,74.90
2018-07-05T08:01:56.544Z,73.20
2018-07-05T08:04:24.174Z,73.70
2018-07-05T08:06:51.775Z,72.80
2018-07-05T08:09:19.372Z,72.30
2018-07-05T08:11:47.077Z,71.80
2018-07-05T08:14:14.708Z,70.70
2018-07-05T08:16:42.357Z,70.60
2018-07-05T08:19:10.037Z,70.60
2018-07-05T08:21:37.730Z,68.00
2018-07-05T08:24:05.553Z,65.60
2018-07-05T08:26:33.224Z,65.40
2018-07-05T08:29:00.845Z,66.20
2018-07-05T08:31:28.516Z,65.80
2018-07-05T08:33:56.138Z,66.10
2018-07-05T08:36:23.818Z,65.70
2018-07-05T08:38:51.332Z,64.30
2018-07-05T08:41:18.911Z,65.50
2018-07-05T08:43:46.437Z,65.00
2018-07-05T08:46:14.024Z,64.80
2018-07-05T08:48:41.781Z,65.50
2018-07-05T08:51:09.507Z,66.00
2018-07-05T08:53:36.968Z,65.80
2018-07-05T08:56:04.406Z,64.50
2018-07-05T08:58:31.882Z,65.40
2018-07-05T09:00:59.492Z,64.20
2018-07-05T09:03:28.137Z,63.50
2018-07-05T09:05:55.577Z,63.20
2018-07-05T09:08:23.122Z,63.30
2018-07-05T09:10:50.586Z,64.20
2018-07-05T09:13:18.028Z,63.90
2018-07-05T09:15:45.757Z,63.70
2018-07-05T09:18:14.035Z,63.70
2018-07-05T09:20:41.488Z,63.00
2018-07-05T09:23:09.009Z,61.10
2018-07-05T09:25:36.609Z,61.30
2018-07-05T09:28:10.336Z,61.20
2018-07-05T09:30:37.885Z,61.10
2018-07-05T09:33:05.392Z,60.90
2018-07-05T09:35:32.794Z,59.90
2018-07-05T09:38:02.057Z,59.90
2018-07-05T09:40:32.718Z,59.60
2018-07-05T09:43:00.287Z,59.50
2018-07-05T09:45:27.962Z,58.90
2018-07-05T09:47:55.490Z,59.00
2018-07-05T09:50:23.094Z,58.90
2018-07-05T09:52:50.753Z,59.00
2018-07-05T09:55:18.511Z,58.20
2018-07-05T09:57:48.157Z,58.20
2018-07-05T10:00:15.788Z,58.10
2018-07-05T10:02:43.429Z,58.00
2018-07-05T10:05:11.094Z,57.70
2018-07-05T10:07:38.767Z,57.60
2018-07-05T10:10:06.376Z,57.70
2018-07-05T10:12:34.975Z,56.60
2018-07-05T10:15:02.516Z,56.60
2018-07-05T10:17:30.137Z,56.40
2018-07-05T10:19:57.716Z,56.20
2018-07-05T10:22:25.332Z,56.20
2018-07-05T10:24:52.891Z,56.20
2018-07-05T10:27:20.927Z,55.90
2018-07-05T10:30:00.683Z,55.30
2018-07-05T10:32:40.435Z,54.90
2018-07-05T10:35:08.115Z,54.70
2018-07-05T10:37:35.716Z,53.80
2018-07-05T10:40:15.729Z,53.60
2018-07-05T10:42:55.709Z,53.50
2018-07-05T10:45:35.639Z,52.70
2018-07-05T10:48:15.599Z,52.40
2018-07-05T10:50:55.421Z,51.80
2018-07-05T10:53:35.258Z,50.40
2018-07-05T10:56:15.178Z,51.70
2018-07-05T10:58:55.028Z,51.00
2018-07-05T11:01:34.855Z,51.50
2018-07-05T11:04:15.025Z,52.00
2018-07-05T11:06:55.062Z,51.40
2018-07-05T11:09:34.842Z,51.70
2018-07-05T11:12:15.025Z,51.60
2018-07-05T11:14:55.063Z,51.30
2018-07-05T11:17:34.866Z,51.40
2018-07-05T11:20:14.731Z,50.70
2018-07-05T11:22:54.590Z,50.10
2018-07-05T11:25:34.836Z,50.40
2018-07-05T11:28:14.919Z,50.60
2018-07-05T11:30:54.876Z,50.80
2018-07-05T11:33:34.738Z,50.40
2018-07-05T11:36:14.733Z,49.90
2018-07-05T11:38:54.954Z,49.30
2018-07-05T11:41:35.008Z,49.00
2018-07-05T11:44:15.275Z,48.40
2018-07-05T11:46:56.494Z,46.90
2018-07-05T11:49:36.477Z,46.60
2018-07-05T11:52:16.452Z,45.70
2018-07-05T11:54:56.536Z,46.10
2018-07-05T11:57:36.444Z,47.00
2018-07-05T12:00:16.417Z,48.00
2018-07-05T12:02:56.220Z,48.50
2018-07-05T12:05:36.117Z,47.70
2018-07-05T12:08:16.354Z,46.60
2018-07-05T12:10:57.749Z,45.60
2018-07-05T12:13:52.436Z,45.10
2018-07-05T12:23:26.939Z,47.90
2018-07-05T12:26:06.930Z,51.00
2018-07-05T12:28:46.787Z,52.10
2018-07-05T13:15:39.273Z,49.90
2018-07-05T13:19:10.301Z,49.30
2018-07-05T13:21:52.228Z,49.00
2018-07-05T13:24:37.711Z,48.80
2018-07-05T13:27:24.144Z,49.50
2018-07-05T13:33:15.606Z,49.50
2018-07-05T13:35:59.057Z,49.70
2018-07-05T13:38:39.569Z,49.90
2018-07-05T13:41:19.766Z,50.40
2018-07-05T13:44:01.089Z,50.90
2018-07-05T13:46:41.657Z,51.00
2018-07-05T13:49:21.912Z,51.40
2018-07-05T13:52:04.218Z,51.90
2018-07-05T13:54:44.589Z,51.00
2018-07-05T13:57:25.931Z,50.80
2018-07-05T14:00:07.147Z,50.20
2018-07-05T14:02:53.232Z,49.60
2018-07-05T14:05:34.768Z,49.00
2018-07-05T14:08:22.689Z,49.40
2018-07-05T14:11:09.832Z,49.10
2018-07-05T14:13:53.034Z,49.20
2018-07-05T14:16:33.101Z,48.80
2018-07-05T14:19:20.818Z,48.50
2018-07-05T14:24:51.364Z,50.10
2018-07-05T14:27:38.328Z,49.90
2018-07-05T14:30:21.337Z,50.30
2018-07-05T14:33:03.689Z,50.40
2018-07-05T14:35:49.488Z,50.00
2018-07-05T14:38:31.496Z,50.60
2018-07-05T14:41:12.803Z,51.00
2018-07-05T14:46:42.060Z,51.10
2018-07-05T14:49:22.216Z,51.30
2018-07-05T14:52:03.600Z,51.30
2018-07-05T14:54:44.988Z,51.10
2018-07-05T14:57:25.002Z,51.20
2018-07-05T15:00:05.137Z,51.30
2018-07-05T15:02:45.196Z,51.30
2018-07-05T15:05:25.324Z,51.40
2018-07-05T15:08:05.448Z,51.50
2018-07-05T15:10:45.414Z,51.90
2018-07-05T15:13:25.217Z,51.90
2018-07-05T15:16:06.813Z,51.50
2018-07-05T15:18:46.886Z,50.80
2018-07-05T15:21:26.873Z,50.30
2018-07-05T15:24:06.848Z,49.90
2018-07-05T15:26:47.845Z,50.10
2018-07-05T15:29:28.051Z,49.90
2018-07-05T15:32:08.344Z,49.90
2018-07-05T15:34:48.301Z,49.60
2018-07-05T15:37:28.280Z,49.50
2018-07-05T15:40:08.458Z,49.60
2018-07-05T15:42:48.499Z,49.80
2018-07-05T15:45:28.571Z,50.00
2018-07-05T15:48:08.623Z,49.90
2018-07-05T15:50:48.885Z,50.40
2018-07-05T15:53:28.845Z,50.90
2018-07-05T15:56:08.854Z,51.40
2018-07-05T15:58:48.984Z,51.20
2018-07-05T16:01:28.960Z,51.40
2018-07-05T16:04:08.885Z,51.50
2018-07-05T16:06:48.894Z,52.00
2018-07-05T16:09:28.836Z,51.70
2018-07-05T16:12:09.665Z,56.10
2018-07-05T16:14:49.600Z,58.20
2018-07-05T16:17:29.700Z,59.60
2018-07-05T16:20:09.574Z,61.40
2018-07-05T16:22:49.660Z,61.90
2018-07-05T16:25:29.556Z,62.70
2018-07-05T16:28:09.424Z,63.70
2018-07-05T16:30:49.354Z,63.70
2018-07-05T16:33:29.311Z,64.30
2018-07-05T16:36:09.450Z,64.40
2018-07-05T16:38:49.340Z,64.60
2018-07-05T16:41:34.092Z,64.90
2018-07-05T16:44:14.251Z,64.50
2018-07-05T16:46:54.214Z,64.60
2018-07-05T16:49:34.291Z,64.90
2018-07-05T16:52:14.902Z,65.00
2018-07-05T16:54:54.871Z,65.10
2018-07-05T16:57:35.412Z,65.40
2018-07-05T17:00:15.570Z,65.60
2018-07-05T17:02:55.632Z,65.80
2018-07-05T17:05:35.974Z,65.80
2018-07-05T17:08:16.142Z,65.20
2018-07-05T17:10:56.634Z,64.70
2018-07-05T17:13:36.797Z,64.10
2018-07-05T17:16:16.952Z,64.00
2018-07-05T17:18:56.904Z,64.10
2018-07-05T17:21:37.034Z,64.70
2018-07-05T17:24:17.102Z,65.40
2018-07-05T17:26:59.001Z,65.50
2018-07-05T17:29:39.383Z,65.90
2018-07-05T17:32:19.451Z,66.20
2018-07-05T17:34:59.694Z,66.30
2018-07-05T17:37:39.993Z,66.40
2018-07-05T17:40:21.802Z,66.70
2018-07-05T17:43:01.859Z,66.80
2018-07-05T17:45:41.761Z,67.50
2018-07-05T17:48:21.833Z,67.60
2018-07-05T17:57:57.400Z,68.40
2018-07-05T18:00:37.391Z,70.50
2018-07-05T18:03:17.400Z,71.30
2018-07-05T18:05:59.967Z,71.90
2018-07-05T18:08:39.782Z,72.50
2018-07-05T18:11:19.570Z,73.30
2018-07-05T18:23:02.366Z,73.70
2018-07-05T18:25:42.380Z,74.10
2018-07-05T18:28:23.987Z,73.90
2018-07-05T18:31:05.195Z,73.90
2018-07-05T18:33:45.602Z,73.90
2018-07-05T18:36:25.510Z,73.80
2018-07-05T18:39:06.391Z,73.80
2018-07-05T18:41:47.293Z,74.00
2018-07-05T18:44:29.114Z,74.40
2018-07-05T18:47:09.165Z,74.90
2018-07-05T18:49:49.171Z,75.30
2018-07-05T18:52:29.741Z,75.50
2018-07-05T18:55:10.563Z,75.70
2018-07-05T18:57:50.492Z,75.80
2018-07-05T19:00:30.622Z,76.20
2018-07-05T19:03:10.539Z,76.30
2018-07-05T19:05:50.531Z,76.40
2018-07-05T19:08:30.445Z,76.80
2018-07-05T19:11:10.303Z,77.10
2018-07-05T19:13:50.169Z,77.40
2018-07-05T19:16:30.204Z,77.70
2018-07-05T19:19:10.058Z,78.00
2018-07-05T19:21:50.102Z,78.30
2018-07-05T19:24:30.021Z,78.50
2018-07-05T19:27:10.003Z,79.00
2018-07-05T19:29:49.987Z,79.60
2018-07-05T19:32:29.956Z,79.90
2018-07-05T19:35:09.910Z,80.00
2018-07-05T19:37:49.919Z,80.50
2018-07-05T19:40:29.970Z,80.80
2018-07-05T19:43:09.968Z,81.00
2018-07-05T19:45:49.858Z,80.80
2018-07-05T19:48:29.896Z,81.10
2018-07-05T19:51:10.002Z,81.30
2018-07-05T19:53:49.788Z,81.20
2018-07-05T19:56:29.839Z,81.00
2018-07-05T19:59:09.941Z,81.30
2018-07-05T20:01:49.891Z,81.30
2018-07-05T20:04:29.951Z,81.10
2018-07-05T20:07:09.999Z,80.90
2018-07-05T20:09:49.960Z,80.50
2018-07-05T20:12:29.948Z,81.00
2018-07-05T20:15:10.048Z,82.30
2018-07-05T20:17:50.331Z,83.10
2018-07-05T20:20:30.443Z,83.20
2018-07-05T20:23:10.461Z,83.90
2018-07-05T20:25:50.478Z,85.00
2018-07-05T20:28:30.470Z,84.90
2018-07-05T20:31:10.468Z,85.20
2018-07-05T20:33:50.398Z,85.70
2018-07-05T20:36:30.321Z,85.80
2018-07-05T20:39:10.320Z,85.90
2018-07-05T20:41:50.331Z,85.40
2018-07-05T20:44:30.303Z,85.30
2018-07-05T20:47:10.298Z,84.80
2018-07-05T20:49:50.190Z,84.70
2018-07-05T20:52:30.371Z,84.90
2018-07-05T20:55:10.553Z,85.30
2018-07-05T20:57:50.542Z,85.60
2018-07-05T21:07:25.380Z,86.20
2018-07-05T21:10:05.297Z,87.00
2018-07-05T21:12:45.289Z,87.40
2018-07-05T21:15:25.355Z,87.60
2018-07-05T21:18:05.398Z,88.20
2018-07-05T21:20:45.478Z,88.40
2018-07-05T21:23:25.607Z,88.60
2018-07-05T21:26:05.498Z,89.10
2018-07-05T21:28:45.508Z,89.20
2018-07-05T21:31:25.593Z,89.50
2018-07-05T21:34:05.578Z,89.90
2018-07-05T21:36:45.495Z,89.50
2018-07-05T21:39:25.387Z,86.40
2018-07-05T21:42:05.381Z,80.80
2018-07-05T21:44:45.229Z,78.80
2018-07-05T21:47:25.117Z,77.50
2018-07-05T21:50:05.161Z,75.10
2018-07-05T21:52:45.169Z,75.60
2018-07-05T21:55:25.184Z,73.50
2018-07-05T21:58:05.229Z,73.00
2018-07-05T22:00:45.131Z,72.80
2018-07-05T22:03:25.155Z,73.50
2018-07-05T22:06:05.200Z,72.70
2018-07-05T22:08:45.212Z,72.80
2018-07-05T22:11:25.205Z,72.90
2018-07-05T22:14:05.171Z,72.20
2018-07-05T22:16:50.351Z,71.80
2018-07-05T22:19:35.478Z,71.70
2018-07-05T22:22:20.761Z,71.50
2018-07-05T22:25:05.901Z,70.10
2018-07-05T22:27:51.076Z,70.50
2018-07-05T22:30:36.051Z,69.80
2018-07-05T22:33:16.118Z,69.00
2018-07-05T22:35:56.201Z,67.40
2018-07-05T22:38:36.321Z,67.00
2018-07-05T22:41:16.295Z,66.40
2018-07-05T22:43:56.214Z,65.50
2018-07-05T22:46:36.093Z,65.10
2018-07-05T22:49:16.070Z,65.60
2018-07-05T22:51:56.201Z,67.40
2018-07-05T22:54:36.041Z,67.90
2018-07-05T22:57:16.009Z,67.60
2018-07-05T22:59:56.046Z,68.50
2018-07-05T23:02:36.053Z,67.90
2018-07-05T23:05:16.081Z,68.30
2018-07-05T23:07:56.009Z,68.60
2018-07-05T23:10:35.861Z,68.70
2018-07-05T23:13:15.929Z,67.90
2018-07-05T23:15:55.910Z,68.90
2018-07-05T23:18:35.955Z,68.80
2018-07-05T23:21:15.931Z,68.80
2018-07-05T23:23:55.821Z,69.00
2018-07-05T23:26:35.732Z,69.30
2018-07-05T23:29:15.813Z,69.00
2018-07-05T23:31:55.849Z,69.20
2018-07-05T23:34:35.805Z,69.30
2018-07-05T23:37:15.682Z,69.20
2018-07-05T23:39:55.551Z,69.00
2018-07-05T23:42:35.569Z,69.20
2018-07-05T23:45:15.609Z,69.20
2018-07-05T23:47:55.637Z,69.30
2018-07-05T23:50:35.529Z,69.30
2018-07-05T23:53:15.617Z,69.10
2018-07-05T23:55:55.723Z,69.20
2018-07-05T23:58:35.615Z,69.40
